sensor_id;sensor_type;location;lat;lon;timestamp;pressure;altitude;pressure_sealevel;temperature;humidity
50380;BME280;37474;59.468;18.040;2023-12-04T00:00:30;101549.03;;;-11.73;100.00
50380;BME280;37474;59.468;18.040;2023-12-04T00:02:58;101553.66;;;-11.64;100.00
50380;BME280;37474;59.468;18.040;2023-12-04T00:05:26;101553.72;;;-11.62;100.00
50380;BME280;37474;59.468;18.040;2023-12-04T00:07:54;101551.28;;;-11.61;100.00
50380;BME280;37474;59.468;18.040;2023-12-04T00:10:22;101550.19;;;-11.66;100.00
50380;BME280;37474;59.468;18.040;2023-12-04T00:12:52;101542.63;;;-11.67;100.00
50380;BME280;37474;59.468;18.040;2023-12-04T00:15:20;101516.44;;;-11.74;100.00
50380;BME280;37474;59.468;18.040;2023-12-04T00:17:48;101549.75;;;-11.42;100.00
50380;BME280;37474;59.468;18.040;2023-12-04T00:20:16;101542.25;;;-11.59;100.00
50380;BME280;37474;59.468;18.040;2023-12-04T00:22:45;101534.63;;;-11.60;100.00
50380;BME280;37474;59.468;18.040;2023-12-04T00:25:13;101555.59;;;-11.42;100.00
50380;BME280;37474;59.468;18.040;2023-12-04T00:27:41;101550.75;;;-11.55;100.00
50380;BME280;37474;59.468;18.040;2023-12-04T00:30:11;101526.06;;;-11.65;100.00
50380;BME280;37474;59.468;18.040;2023-12-04T00:32:39;101555.31;;;-11.48;100.00
50380;BME280;37474;59.468;18.040;2023-12-04T00:35:07;101547.31;;;-11.57;100.00
50380;BME280;37474;59.468;18.040;2023-12-04T00:37:35;101538.97;;;-11.58;100.00
50380;BME280;37474;59.468;18.040;2023-12-04T00:40:06;101538.66;;;-11.64;100.00
50380;BME280;37474;59.468;18.040;2023-12-04T00:42:34;101532.31;;;-11.74;100.00
50380;BME280;37474;59.468;18.040;2023-12-04T00:45:03;101536.16;;;-11.64;100.00
50380;BME280;37474;59.468;18.040;2023-12-04T00:47:34;101547.63;;;-11.67;100.00
50380;BME280;37474;59.468;18.040;2023-12-04T00:50:02;101515.53;;;-11.92;100.00
50380;BME280;37474;59.468;18.040;2023-12-04T00:52:30;101533.16;;;-11.73;100.00
50380;BME280;37474;59.468;18.040;2023-12-04T00:54:58;101541.69;;;-11.69;100.00
50380;BME280;37474;59.468;18.040;2023-12-04T00:57:26;101536.84;;;-11.66;100.00
50380;BME280;37474;59.468;18.040;2023-12-04T00:59:54;101541.69;;;-11.53;100.00
50380;BME280;37474;59.468;18.040;2023-12-04T01:02:22;101542.06;;;-11.62;100.00
50380;BME280;37474;59.468;18.040;2023-12-04T01:04:52;101537.00;;;-11.63;100.00
50380;BME280;37474;59.468;18.040;2023-12-04T01:07:20;101536.22;;;-11.62;100.00
50380;BME280;37474;59.468;18.040;2023-12-04T01:09:51;101534.56;;;-11.62;100.00
50380;BME280;37474;59.468;18.040;2023-12-04T01:12:19;101518.31;;;-11.70;100.00
50380;BME280;37474;59.468;18.040;2023-12-04T01:14:47;101515.66;;;-11.73;100.00
50380;BME280;37474;59.468;18.040;2023-12-04T01:17:16;101529.81;;;-11.57;100.00
50380;BME280;37474;59.468;18.040;2023-12-04T01:19:44;101525.66;;;-11.57;100.00
50380;BME280;37474;59.468;18.040;2023-12-04T01:22:13;101523.16;;;-11.73;100.00
50380;BME280;37474;59.468;18.040;2023-12-04T01:24:41;101523.63;;;-11.64;100.00
50380;BME280;37474;59.468;18.040;2023-12-04T01:27:09;101526.28;;;-11.77;100.00
50380;BME280;37474;59.468;18.040;2023-12-04T01:29:38;101517.56;;;-11.85;100.00
50380;BME280;37474;59.468;18.040;2023-12-04T01:32:06;101510.63;;;-11.91;100.00
50380;BME280;37474;59.468;18.040;2023-12-04T01:34:34;101508.97;;;-12.07;100.00
50380;BME280;37474;59.468;18.040;2023-12-04T01:37:02;101526.31;;;-12.10;100.00
50380;BME280;37474;59.468;18.040;2023-12-04T01:39:32;101517.19;;;-11.93;100.00
50380;BME280;37474;59.468;18.040;2023-12-04T01:42:00;101517.38;;;-12.05;100.00
50380;BME280;37474;59.468;18.040;2023-12-04T01:44:28;101519.19;;;-12.18;100.00
50380;BME280;37474;59.468;18.040;2023-12-04T01:46:56;101524.97;;;-12.19;100.00
50380;BME280;37474;59.468;18.040;2023-12-04T01:49:24;101527.91;;;-12.27;100.00
50380;BME280;37474;59.468;18.040;2023-12-04T01:51:53;101504.00;;;-12.38;100.00
50380;BME280;37474;59.468;18.040;2023-12-04T01:54:21;101528.91;;;-12.23;100.00
50380;BME280;37474;59.468;18.040;2023-12-04T01:56:51;101533.91;;;-12.23;100.00
50380;BME280;37474;59.468;18.040;2023-12-04T01:59:19;101534.09;;;-12.20;100.00
50380;BME280;37474;59.468;18.040;2023-12-04T02:01:48;101538.06;;;-12.23;100.00
50380;BME280;37474;59.468;18.040;2023-12-04T02:04:16;101525.31;;;-12.28;100.00
50380;BME280;37474;59.468;18.040;2023-12-04T02:06:44;101521.50;;;-12.38;100.00
50380;BME280;37474;59.468;18.040;2023-12-04T02:09:13;101509.88;;;-12.52;100.00
50380;BME280;37474;59.468;18.040;2023-12-04T02:11:42;101526.66;;;-12.49;100.00
50380;BME280;37474;59.468;18.040;2023-12-04T02:14:12;101524.53;;;-12.43;100.00
50380;BME280;37474;59.468;18.040;2023-12-04T02:16:41;101514.81;;;-12.68;100.00
50380;BME280;37474;59.468;18.040;2023-12-04T02:19:12;101522.38;;;-12.67;100.00
50380;BME280;37474;59.468;18.040;2023-12-04T02:21:40;101528.50;;;-12.62;100.00
50380;BME280;37474;59.468;18.040;2023-12-04T02:24:10;101532.38;;;-12.67;100.00
50380;BME280;37474;59.468;18.040;2023-12-04T02:26:42;101534.22;;;-12.79;100.00
50380;BME280;37474;59.468;18.040;2023-12-04T02:29:15;101525.41;;;-12.72;100.00
50380;BME280;37474;59.468;18.040;2023-12-04T02:31:50;101524.41;;;-12.76;100.00
50380;BME280;37474;59.468;18.040;2023-12-04T02:34:20;101528.75;;;-12.72;100.00
50380;BME280;37474;59.468;18.040;2023-12-04T02:36:49;101528.94;;;-12.69;100.00
50380;BME280;37474;59.468;18.040;2023-12-04T02:39:20;101535.59;;;-12.84;100.00
50380;BME280;37474;59.468;18.040;2023-12-04T02:41:48;101534.47;;;-12.89;100.00
50380;BME280;37474;59.468;18.040;2023-12-04T02:44:16;101533.34;;;-12.94;100.00
50380;BME280;37474;59.468;18.040;2023-12-04T02:46:44;101529.47;;;-12.89;100.00
50380;BME280;37474;59.468;18.040;2023-12-04T02:49:13;101539.56;;;-13.02;100.00
50380;BME280;37474;59.468;18.040;2023-12-04T02:51:41;101518.06;;;-13.15;100.00
50380;BME280;37474;59.468;18.040;2023-12-04T02:54:09;101527.59;;;-13.08;100.00
50380;BME280;37474;59.468;18.040;2023-12-04T02:56:38;101508.25;;;-13.27;100.00
50380;BME280;37474;59.468;18.040;2023-12-04T02:59:06;101499.16;;;-13.26;100.00
50380;BME280;37474;59.468;18.040;2023-12-04T03:01:34;101483.16;;;-13.30;100.00
50380;BME280;37474;59.468;18.040;2023-12-04T03:04:02;101503.63;;;-13.21;100.00
50380;BME280;37474;59.468;18.040;2023-12-04T03:06:31;101503.44;;;-13.24;100.00
50380;BME280;37474;59.468;18.040;2023-12-04T03:08:59;101484.50;;;-13.35;100.00
50380;BME280;37474;59.468;18.040;2023-12-04T03:11:27;101486.38;;;-13.16;100.00
50380;BME280;37474;59.468;18.040;2023-12-04T03:13:56;101510.06;;;-13.10;100.00
50380;BME280;37474;59.468;18.040;2023-12-04T03:16:24;101501.72;;;-13.25;100.00
50380;BME280;37474;59.468;18.040;2023-12-04T03:18:53;101503.03;;;-13.32;100.00
50380;BME280;37474;59.468;18.040;2023-12-04T03:21:21;101483.81;;;-13.47;100.00
50380;BME280;37474;59.468;18.040;2023-12-04T03:23:49;101504.66;;;-13.32;100.00
50380;BME280;37474;59.468;18.040;2023-12-04T03:26:17;101497.59;;;-13.24;100.00
50380;BME280;37474;59.468;18.040;2023-12-04T03:28:45;101503.09;;;-13.30;100.00
50380;BME280;37474;59.468;18.040;2023-12-04T03:31:15;101506.63;;;-13.26;100.00
50380;BME280;37474;59.468;18.040;2023-12-04T03:33:43;101493.66;;;-13.21;100.00
50380;BME280;37474;59.468;18.040;2023-12-04T03:36:11;101485.03;;;-13.41;100.00
50380;BME280;37474;59.468;18.040;2023-12-04T03:38:39;101484.50;;;-13.35;100.00
50380;BME280;37474;59.468;18.040;2023-12-04T03:41:13;101486.81;;;-13.38;100.00
50380;BME280;37474;59.468;18.040;2023-12-04T03:43:41;101495.78;;;-13.27;100.00
50380;BME280;37474;59.468;18.040;2023-12-04T03:46:10;101489.91;;;-13.13;100.00
50380;BME280;37474;59.468;18.040;2023-12-04T03:48:39;101483.19;;;-13.14;100.00
50380;BME280;37474;59.468;18.040;2023-12-04T03:51:07;101468.81;;;-13.18;100.00
50380;BME280;37474;59.468;18.040;2023-12-04T03:53:36;101474.59;;;-13.04;100.00
50380;BME280;37474;59.468;18.040;2023-12-04T03:56:04;101477.91;;;-12.89;100.00
50380;BME280;37474;59.468;18.040;2023-12-04T03:58:33;101472.72;;;-12.77;100.00
50380;BME280;37474;59.468;18.040;2023-12-04T04:01:01;101478.94;;;-12.70;100.00
50380;BME280;37474;59.468;18.040;2023-12-04T04:03:29;101481.66;;;-12.66;100.00
50380;BME280;37474;59.468;18.040;2023-12-04T04:05:59;101480.78;;;-12.66;100.00
50380;BME280;37474;59.468;18.040;2023-12-04T04:08:27;101485.31;;;-12.75;100.00
50380;BME280;37474;59.468;18.040;2023-12-04T04:10:55;101487.41;;;-12.52;100.00
50380;BME280;37474;59.468;18.040;2023-12-04T04:13:23;101486.28;;;-12.57;100.00
50380;BME280;37474;59.468;18.040;2023-12-04T04:15:51;101482.00;;;-12.60;100.00
50380;BME280;37474;59.468;18.040;2023-12-04T04:18:19;101496.34;;;-12.56;100.00
50380;BME280;37474;59.468;18.040;2023-12-04T04:20:47;101486.81;;;-12.48;100.00
50380;BME280;37474;59.468;18.040;2023-12-04T04:23:17;101494.53;;;-12.43;100.00
50380;BME280;37474;59.468;18.040;2023-12-04T04:25:45;101481.88;;;-12.46;100.00
50380;BME280;37474;59.468;18.040;2023-12-04T04:28:14;101491.41;;;-12.39;100.00
50380;BME280;37474;59.468;18.040;2023-12-04T04:30:43;101492.25;;;-12.39;100.00
50380;BME280;37474;59.468;18.040;2023-12-04T04:33:11;101469.88;;;-12.37;100.00
50380;BME280;37474;59.468;18.040;2023-12-04T04:35:39;101478.09;;;-12.23;100.00
50380;BME280;37474;59.468;18.040;2023-12-04T04:38:07;101467.94;;;-12.27;100.00
50380;BME280;37474;59.468;18.040;2023-12-04T04:40:39;101479.25;;;-12.17;100.00
50380;BME280;37474;59.468;18.040;2023-12-04T04:43:10;101482.94;;;-12.10;100.00
50380;BME280;37474;59.468;18.040;2023-12-04T04:45:38;101475.97;;;-12.16;100.00
50380;BME280;37474;59.468;18.040;2023-12-04T04:48:06;101480.59;;;-12.07;100.00
50380;BME280;37474;59.468;18.040;2023-12-04T04:50:34;101474.13;;;-12.04;100.00
50380;BME280;37474;59.468;18.040;2023-12-04T04:53:02;101462.56;;;-12.02;100.00
50380;BME280;37474;59.468;18.040;2023-12-04T04:55:30;101473.66;;;-11.96;100.00
50380;BME280;37474;59.468;18.040;2023-12-04T04:58:16;101495.84;;;-11.86;100.00
50380;BME280;37474;59.468;18.040;2023-12-04T05:00:45;101469.81;;;-11.90;100.00
50380;BME280;37474;59.468;18.040;2023-12-04T05:03:13;101484.13;;;-11.87;100.00
50380;BME280;37474;59.468;18.040;2023-12-04T05:05:41;101476.16;;;-11.96;100.00
50380;BME280;37474;59.468;18.040;2023-12-04T05:08:09;101480.28;;;-11.81;100.00
50380;BME280;37474;59.468;18.040;2023-12-04T05:10:38;101466.13;;;-11.80;100.00
50380;BME280;37474;59.468;18.040;2023-12-04T05:13:07;101461.44;;;-11.74;100.00
50380;BME280;37474;59.468;18.040;2023-12-04T05:15:36;101487.66;;;-11.66;100.00
50380;BME280;37474;59.468;18.040;2023-12-04T05:18:04;101485.16;;;-11.66;100.00
50380;BME280;37474;59.468;18.040;2023-12-04T05:20:32;101487.91;;;-11.61;100.00
50380;BME280;37474;59.468;18.040;2023-12-04T05:23:00;101472.03;;;-11.78;100.00
50380;BME280;37474;59.468;18.040;2023-12-04T05:25:28;101473.22;;;-11.72;100.00
50380;BME280;37474;59.468;18.040;2023-12-04T05:28:06;101480.50;;;-11.60;100.00
50380;BME280;37474;59.468;18.040;2023-12-04T05:30:35;101482.34;;;-11.56;100.00
50380;BME280;37474;59.468;18.040;2023-12-04T05:33:03;101474.84;;;-11.56;100.00
50380;BME280;37474;59.468;18.040;2023-12-04T05:35:32;101476.19;;;-11.62;100.00
50380;BME280;37474;59.468;18.040;2023-12-04T05:38:01;101482.81;;;-11.47;100.00
50380;BME280;37474;59.468;18.040;2023-12-04T05:40:29;101473.19;;;-11.55;100.00
50380;BME280;37474;59.468;18.040;2023-12-04T05:42:57;101479.97;;;-11.36;100.00
50380;BME280;37474;59.468;18.040;2023-12-04T05:45:25;101470.91;;;-11.51;100.00
50380;BME280;37474;59.468;18.040;2023-12-04T05:47:55;101480.22;;;-11.32;100.00
50380;BME280;37474;59.468;18.040;2023-12-04T05:50:23;101475.19;;;-11.32;100.00
50380;BME280;37474;59.468;18.040;2023-12-04T05:52:51;101487.78;;;-11.30;100.00
50380;BME280;37474;59.468;18.040;2023-12-04T05:55:19;101462.63;;;-11.50;100.00
50380;BME280;37474;59.468;18.040;2023-12-04T05:57:48;101483.41;;;-11.34;100.00
50380;BME280;37474;59.468;18.040;2023-12-04T06:00:16;101476.69;;;-11.35;100.00
50380;BME280;37474;59.468;18.040;2023-12-04T06:02:44;101485.13;;;-11.33;100.00
50380;BME280;37474;59.468;18.040;2023-12-04T06:05:14;101476.91;;;-11.31;100.00
50380;BME280;37474;59.468;18.040;2023-12-04T06:07:42;101476.91;;;-11.31;100.00
50380;BME280;37474;59.468;18.040;2023-12-04T06:10:10;101461.22;;;-11.45;100.00
50380;BME280;37474;59.468;18.040;2023-12-04T06:12:38;101492.84;;;-11.29;100.00
50380;BME280;37474;59.468;18.040;2023-12-04T06:15:07;101478.00;;;-11.26;100.00
50380;BME280;37474;59.468;18.040;2023-12-04T06:17:35;101463.94;;;-11.40;100.00
50380;BME280;37474;59.468;18.040;2023-12-04T06:20:04;101460.75;;;-11.37;100.00
50380;BME280;37474;59.468;18.040;2023-12-04T06:22:35;101468.13;;;-11.23;100.00
50380;BME280;37474;59.468;18.040;2023-12-04T06:25:03;101464.41;;;-11.13;100.00
50380;BME280;37474;59.468;18.040;2023-12-04T06:27:32;101458.63;;;-11.12;100.00
50380;BME280;37474;59.468;18.040;2023-12-04T06:30:01;101461.34;;;-11.07;100.00
50380;BME280;37474;59.468;18.040;2023-12-04T06:32:29;101470.63;;;-11.05;100.00
50380;BME280;37474;59.468;18.040;2023-12-04T06:34:58;101468.00;;;-11.08;100.00
50380;BME280;37474;59.468;18.040;2023-12-04T06:37:27;101471.59;;;-11.03;100.00
50380;BME280;37474;59.468;18.040;2023-12-04T06:39:57;101444.81;;;-11.22;100.00
50380;BME280;37474;59.468;18.040;2023-12-04T06:42:28;101460.34;;;-11.11;100.00
50380;BME280;37474;59.468;18.040;2023-12-04T06:44:57;101456.47;;;-11.22;100.00
50380;BME280;37474;59.468;18.040;2023-12-04T06:47:25;101468.28;;;-11.20;100.00
50380;BME280;37474;59.468;18.040;2023-12-04T06:49:53;101462.88;;;-11.27;100.00
50380;BME280;37474;59.468;18.040;2023-12-04T06:52:22;101459.63;;;-11.26;100.00
50380;BME280;37474;59.468;18.040;2023-12-04T06:54:50;101468.56;;;-11.31;100.00
50380;BME280;37474;59.468;18.040;2023-12-04T06:57:19;101473.25;;;-11.37;100.00
50380;BME280;37474;59.468;18.040;2023-12-04T06:59:47;101482.41;;;-11.38;100.00
50380;BME280;37474;59.468;18.040;2023-12-04T07:02:15;101476.47;;;-11.40;100.00
50380;BME280;37474;59.468;18.040;2023-12-04T07:04:43;101486.50;;;-11.56;100.00
50380;BME280;37474;59.468;18.040;2023-12-04T07:07:14;101488.38;;;-11.52;100.00
50380;BME280;37474;59.468;18.040;2023-12-04T07:09:42;101486.06;;;-11.65;100.00
50380;BME280;37474;59.468;18.040;2023-12-04T07:12:10;101495.03;;;-11.69;100.00
50380;BME280;37474;59.468;18.040;2023-12-04T07:14:40;101496.94;;;-11.81;100.00
50380;BME280;37474;59.468;18.040;2023-12-04T07:17:09;101494.25;;;-11.68;100.00
50380;BME280;37474;59.468;18.040;2023-12-04T07:19:38;101493.22;;;-11.72;100.00
50380;BME280;37474;59.468;18.040;2023-12-04T07:22:08;101494.09;;;-11.71;100.00
50380;BME280;37474;59.468;18.040;2023-12-04T07:24:36;101490.88;;;-11.68;100.00
50380;BME280;37474;59.468;18.040;2023-12-04T07:27:04;101497.66;;;-11.66;100.00
50380;BME280;37474;59.468;18.040;2023-12-04T07:29:33;101502.06;;;-11.62;100.00
50380;BME280;37474;59.468;18.040;2023-12-04T07:32:02;101486.34;;;-11.59;100.00
50380;BME280;37474;59.468;18.040;2023-12-04T07:34:31;101504.53;;;-11.46;100.00
50380;BME280;37474;59.468;18.040;2023-12-04T07:36:59;101500.53;;;-11.26;100.00
50380;BME280;37474;59.468;18.040;2023-12-04T07:39:27;101500.75;;;-11.21;100.00
50380;BME280;37474;59.468;18.040;2023-12-04T07:41:55;101498.38;;;-11.18;100.00
50380;BME280;37474;59.468;18.040;2023-12-04T07:44:39;101478.47;;;-11.33;100.00
50380;BME280;37474;59.468;18.040;2023-12-04T07:47:08;101481.78;;;-11.16;100.00
50380;BME280;37474;59.468;18.040;2023-12-04T07:49:36;101491.06;;;-10.97;100.00
50380;BME280;37474;59.468;18.040;2023-12-04T07:52:04;101502.19;;;-11.08;100.00
50380;BME280;37474;59.468;18.040;2023-12-04T07:54:33;101495.31;;;-11.12;100.00
50380;BME280;37474;59.468;18.040;2023-12-04T07:57:01;101487.19;;;-11.08;100.00
50380;BME280;37474;59.468;18.040;2023-12-04T07:59:30;101496.13;;;-10.78;100.00
50380;BME280;37474;59.468;18.040;2023-12-04T08:01:58;101496.34;;;-10.73;100.00
50380;BME280;37474;59.468;18.040;2023-12-04T08:04:27;101481.09;;;-10.78;100.00
50380;BME280;37474;59.468;18.040;2023-12-04T08:06:55;101501.06;;;-10.61;100.00
50380;BME280;37474;59.468;18.040;2023-12-04T08:09:24;101486.91;;;-10.79;100.00
50380;BME280;37474;59.468;18.040;2023-12-04T08:11:51;101479.19;;;-10.66;100.00
50380;BME280;37474;59.468;18.040;2023-12-04T08:14:22;101507.09;;;-10.58;100.00
50380;BME280;37474;59.468;18.040;2023-12-04T08:16:50;101513.25;;;-10.51;100.00
50380;BME280;37474;59.468;18.040;2023-12-04T08:19:18;101509.94;;;-10.50;100.00
50380;BME280;37474;59.468;18.040;2023-12-04T08:21:48;101511.00;;;-10.45;100.00
50380;BME280;37474;59.468;18.040;2023-12-04T08:24:16;101515.31;;;-10.43;100.00
50380;BME280;37474;59.468;18.040;2023-12-04T08:26:45;101513.72;;;-10.41;100.00
50380;BME280;37474;59.468;18.040;2023-12-04T08:29:13;101522.56;;;-10.49;100.00
50380;BME280;37474;59.468;18.040;2023-12-04T08:31:41;101513.41;;;-10.48;100.00
50380;BME280;37474;59.468;18.040;2023-12-04T08:34:09;101528.66;;;-10.44;100.00
50380;BME280;37474;59.468;18.040;2023-12-04T08:36:40;101520.56;;;-10.38;100.00
50380;BME280;37474;59.468;18.040;2023-12-04T08:39:13;101525.56;;;-10.19;100.00
50380;BME280;37474;59.468;18.040;2023-12-04T08:41:44;101541.94;;;-10.07;100.00
50380;BME280;37474;59.468;18.040;2023-12-04T08:44:27;101532.25;;;-10.00;100.00
50380;BME280;37474;59.468;18.040;2023-12-04T08:46:55;101531.53;;;-9.97;100.00
50380;BME280;37474;59.468;18.040;2023-12-04T08:49:24;101533.59;;;-9.89;100.00
50380;BME280;37474;59.468;18.040;2023-12-04T08:52:06;101533.41;;;-9.74;100.00
50380;BME280;37474;59.468;18.040;2023-12-04T08:54:38;101522.03;;;-9.85;100.00
50380;BME280;37474;59.468;18.040;2023-12-04T08:57:07;101550.38;;;-9.68;100.00
50380;BME280;37474;59.468;18.040;2023-12-04T08:59:36;101540.94;;;-9.54;100.00
50380;BME280;37474;59.468;18.040;2023-12-04T09:02:04;101531.75;;;-9.54;100.00
50380;BME280;37474;59.468;18.040;2023-12-04T09:04:32;101526.16;;;-9.48;100.00
50380;BME280;37474;59.468;18.040;2023-12-04T09:07:04;101533.13;;;-9.61;100.00
50380;BME280;37474;59.468;18.040;2023-12-04T09:09:36;101539.28;;;-9.54;100.00
50380;BME280;37474;59.468;18.040;2023-12-04T09:12:06;101528.31;;;-9.56;100.00
50380;BME280;37474;59.468;18.040;2023-12-04T09:14:35;101532.28;;;-9.61;100.00
50380;BME280;37474;59.468;18.040;2023-12-04T09:17:04;101544.81;;;-9.61;100.00
50380;BME280;37474;59.468;18.040;2023-12-04T09:19:32;101547.72;;;-9.52;100.00
50380;BME280;37474;59.468;18.040;2023-12-04T09:22:01;101538.59;;;-9.50;100.00
50380;BME280;37474;59.468;18.040;2023-12-04T09:24:44;101542.53;;;-9.76;100.00
50380;BME280;37474;59.468;18.040;2023-12-04T09:27:12;101544.22;;;-9.75;100.00
50380;BME280;37474;59.468;18.040;2023-12-04T09:29:41;101530.03;;;-9.55;100.00
50380;BME280;37474;59.468;18.040;2023-12-04T09:32:09;101551.59;;;-9.60;100.00
50380;BME280;37474;59.468;18.040;2023-12-04T09:34:37;101528.50;;;-9.51;100.00
50380;BME280;37474;59.468;18.040;2023-12-04T09:37:05;101540.34;;;-9.68;100.00
50380;BME280;37474;59.468;18.040;2023-12-04T09:39:38;101538.03;;;-9.64;100.00
50380;BME280;37474;59.468;18.040;2023-12-04T09:42:09;101545.06;;;-9.55;100.00
50380;BME280;37474;59.468;18.040;2023-12-04T09:44:39;101546.53;;;-9.41;100.00
50380;BME280;37474;59.468;18.040;2023-12-04T09:47:08;101526.16;;;-9.48;100.00
50380;BME280;37474;59.468;18.040;2023-12-04T09:49:38;101535.25;;;-9.50;100.00
50380;BME280;37474;59.468;18.040;2023-12-04T09:52:07;101547.75;;;-9.33;100.00
50380;BME280;37474;59.468;18.040;2023-12-04T09:54:35;101544.88;;;-9.21;100.00
50380;BME280;37474;59.468;18.040;2023-12-04T09:57:05;101549.13;;;-8.99;100.00
50380;BME280;37474;59.468;18.040;2023-12-04T09:59:34;101529.53;;;-8.87;100.00
50380;BME280;37474;59.468;18.040;2023-12-04T10:02:04;101547.16;;;-8.64;100.00
50380;BME280;37474;59.468;18.040;2023-12-04T10:04:33;101537.72;;;-8.49;100.00
50380;BME280;37474;59.468;18.040;2023-12-04T10:07:02;101542.97;;;-8.43;100.00
50380;BME280;37474;59.468;18.040;2023-12-04T10:09:30;101541.25;;;-8.44;100.00
50380;BME280;37474;59.468;18.040;2023-12-04T10:11:59;101546.94;;;-8.70;100.00
50380;BME280;37474;59.468;18.040;2023-12-04T10:14:29;101549.72;;;-8.63;100.00
50380;BME280;37474;59.468;18.040;2023-12-04T10:16:59;101542.75;;;-8.49;100.00
50380;BME280;37474;59.468;18.040;2023-12-04T10:19:28;101527.75;;;-8.46;100.00
50380;BME280;37474;59.468;18.040;2023-12-04T10:21:58;101535.72;;;-8.34;100.00
50380;BME280;37474;59.468;18.040;2023-12-04T10:24:29;101531.00;;;-8.26;100.00
50380;BME280;37474;59.468;18.040;2023-12-04T10:26:58;101533.88;;;-8.39;100.00
50380;BME280;37474;59.468;18.040;2023-12-04T10:29:28;101540.44;;;-8.20;100.00
50380;BME280;37474;59.468;18.040;2023-12-04T10:32:00;101539.38;;;-8.27;100.00
50380;BME280;37474;59.468;18.040;2023-12-04T10:34:29;101539.53;;;-8.45;100.00
50380;BME280;37474;59.468;18.040;2023-12-04T10:37:02;101532.38;;;-8.34;100.00
50380;BME280;37474;59.468;18.040;2023-12-04T10:39:30;101548.66;;;-8.25;100.00
50380;BME280;37474;59.468;18.040;2023-12-04T10:42:00;101532.50;;;-8.31;100.00
50380;BME280;37474;59.468;18.040;2023-12-04T10:44:30;101534.06;;;-8.33;100.00
50380;BME280;37474;59.468;18.040;2023-12-04T10:47:00;101531.06;;;-8.47;100.00
50380;BME280;37474;59.468;18.040;2023-12-04T10:49:29;101541.09;;;-8.69;100.00
50380;BME280;37474;59.468;18.040;2023-12-04T10:51:58;101545.94;;;-8.53;100.00
50380;BME280;37474;59.468;18.040;2023-12-04T10:54:28;101537.44;;;-8.55;100.00
50380;BME280;37474;59.468;18.040;2023-12-04T10:57:00;101539.59;;;-8.43;100.00
50380;BME280;37474;59.468;18.040;2023-12-04T10:59:34;101538.84;;;-8.41;100.00
50380;BME280;37474;59.468;18.040;2023-12-04T11:02:05;101537.09;;;-8.43;100.00
50380;BME280;37474;59.468;18.040;2023-12-04T11:04:36;101537.31;;;-8.37;100.00
50380;BME280;37474;59.468;18.040;2023-12-04T11:07:06;101521.44;;;-8.36;100.00
50380;BME280;37474;59.468;18.040;2023-12-04T11:09:37;101530.69;;;-8.34;100.00
50380;BME280;37474;59.468;18.040;2023-12-04T11:12:07;101547.19;;;-8.19;100.00
50380;BME280;37474;59.468;18.040;2023-12-04T11:14:37;101545.81;;;-8.11;100.00
50380;BME280;37474;59.468;18.040;2023-12-04T11:17:12;101559.75;;;-8.19;100.00
50380;BME280;37474;59.468;18.040;2023-12-04T11:19:49;101546.09;;;-8.26;100.00
50380;BME280;37474;59.468;18.040;2023-12-04T11:22:21;101544.44;;;-8.03;100.00
50380;BME280;37474;59.468;18.040;2023-12-04T11:24:49;101540.13;;;-8.06;100.00
50380;BME280;37474;59.468;18.040;2023-12-04T11:27:17;101551.19;;;-8.02;100.00
50380;BME280;37474;59.468;18.040;2023-12-04T11:29:46;101546.91;;;-8.05;100.00
50380;BME280;37474;59.468;18.040;2023-12-04T11:32:16;101551.69;;;-8.11;100.00
50380;BME280;37474;59.468;18.040;2023-12-04T11:34:48;101562.63;;;-8.10;100.00
50380;BME280;37474;59.468;18.040;2023-12-04T11:37:16;101547.88;;;-8.24;100.00
50380;BME280;37474;59.468;18.040;2023-12-04T11:39:46;101550.50;;;-8.20;100.00
50380;BME280;37474;59.468;18.040;2023-12-04T11:42:18;101557.13;;;-8.00;100.00
50380;BME280;37474;59.468;18.040;2023-12-04T11:44:48;101550.44;;;-7.77;100.00
50380;BME280;37474;59.468;18.040;2023-12-04T11:47:17;101553.34;;;-7.89;100.00
50380;BME280;37474;59.468;18.040;2023-12-04T11:49:45;101549.47;;;-7.81;100.00
50380;BME280;37474;59.468;18.040;2023-12-04T11:52:13;101542.59;;;-8.07;100.00
50380;BME280;37474;59.468;18.040;2023-12-04T11:54:58;101535.88;;;-8.08;100.00
50380;BME280;37474;59.468;18.040;2023-12-04T11:57:27;101550.81;;;-7.89;100.00
50380;BME280;37474;59.468;18.040;2023-12-04T12:00:19;101545.75;;;-7.90;100.00
50380;BME280;37474;59.468;18.040;2023-12-04T12:03:01;101551.75;;;-7.87;100.00
50380;BME280;37474;59.468;18.040;2023-12-04T12:05:49;101551.31;;;-7.99;100.00
50380;BME280;37474;59.468;18.040;2023-12-04T12:08:20;101553.94;;;-8.18;100.00
50380;BME280;37474;59.468;18.040;2023-12-04T12:10:51;101563.19;;;-8.17;100.00
50380;BME280;37474;59.468;18.040;2023-12-04T12:13:20;101566.84;;;-8.32;100.00
50380;BME280;37474;59.468;18.040;2023-12-04T12:15:48;101562.06;;;-8.26;100.00
50380;BME280;37474;59.468;18.040;2023-12-04T12:18:21;101564.38;;;-8.30;100.00
50380;BME280;37474;59.468;18.040;2023-12-04T12:20:50;101556.66;;;-8.35;100.00
50380;BME280;37474;59.468;18.040;2023-12-04T12:23:18;101556.47;;;-8.41;100.00
50380;BME280;37474;59.468;18.040;2023-12-04T12:25:46;101560.50;;;-8.44;100.00
50380;BME280;37474;59.468;18.040;2023-12-04T12:28:15;101553.28;;;-8.58;100.00
50380;BME280;37474;59.468;18.040;2023-12-04T12:30:44;101555.00;;;-8.57;100.00
50380;BME280;37474;59.468;18.040;2023-12-04T12:33:13;101562.88;;;-8.49;100.00